TimeCDT,TemperatureF,Dew PointF,Humidity,Sea Level PressureIn,VisibilityMPH,Wind Direction,Wind SpeedMPH,Gust SpeedMPH,PrecipitationIn,Events,Conditions,WindDirDegrees,DateUTC
12:53 AM,71.1,61.0,70,29.96,10.0,SSE,6.9,-,N/A,,Clear,150,2013-07-05 05:53:00
1:53 AM,69.1,62.1,78,29.95,10.0,SSE,3.5,-,N/A,,Clear,150,2013-07-05 06:53:00
2:53 AM,69.1,62.1,78,29.95,10.0,SSE,6.9,-,N/A,,Clear,150,2013-07-05 07:53:00
3:53 AM,68.0,62.1,81,29.95,10.0,SSE,8.1,-,N/A,,Clear,160,2013-07-05 08:53:00
4:53 AM,66.0,60.1,81,29.95,10.0,SE,6.9,-,N/A,,Clear,140,2013-07-05 09:53:00
5:53 AM,66.0,60.1,81,29.96,10.0,SE,8.1,-,N/A,,Clear,140,2013-07-05 10:53:00
6:53 AM,68.0,60.1,76,29.96,10.0,SE,5.8,-,N/A,,Clear,140,2013-07-05 11:53:00
7:53 AM,72.0,61.0,68,29.98,10.0,South,5.8,-,N/A,,Clear,170,2013-07-05 12:53:00
8:53 AM,75.0,61.0,62,29.99,10.0,South,9.2,-,N/A,,Clear,180,2013-07-05 13:53:00
9:53 AM,77.0,62.1,60,29.97,10.0,South,9.2,-,N/A,,Clear,170,2013-07-05 14:53:00
10:53 AM,81.0,61.0,50,29.96,10.0,South,8.1,-,N/A,,Clear,170,2013-07-05 15:53:00
11:53 AM,82.9,62.1,49,29.94,10.0,SSE,10.4,-,N/A,,Clear,160,2013-07-05 16:53:00
12:53 PM,86.0,62.1,44,29.93,10.0,South,12.7,20.7,0.00,,Clear,190,2013-07-05 17:53:00
1:53 PM,86.0,60.1,41,29.92,10.0,South,16.1,23.0,N/A,,Clear,170,2013-07-05 18:53:00
2:53 PM,88.0,60.1,39,29.91,10.0,South,18.4,25.3,N/A,,Clear,170,2013-07-05 19:53:00
3:53 PM,88.0,59.0,37,29.90,10.0,South,15.0,-,N/A,,Clear,170,2013-07-05 20:53:00
4:53 PM,87.1,59.0,39,29.90,10.0,South,15.0,23.0,N/A,,Clear,180,2013-07-05 21:53:00
5:53 PM,87.1,59.0,39,29.89,10.0,South,16.1,-,N/A,,Clear,180,2013-07-05 22:53:00
6:53 PM,84.0,61.0,46,29.89,10.0,South,9.2,-,N/A,,Clear,180,2013-07-05 23:53:00
7:53 PM,82.9,60.1,46,29.89,10.0,South,12.7,-,N/A,,Clear,170,2013-07-06 00:53:00
8:53 PM,80.1,61.0,52,29.89,10.0,South,9.2,-,N/A,,Clear,170,2013-07-06 01:53:00
9:53 PM,78.1,60.1,54,29.90,10.0,SSE,8.1,-,N/A,,Clear,160,2013-07-06 02:53:00
10:53 PM,77.0,62.1,60,29.91,10.0,South,6.9,-,N/A,,Clear,170,2013-07-06 03:53:00
11:53 PM,75.9,62.1,62,29.91,10.0,South,10.4,-,N/A,,Clear,180,2013-07-06 04:53:00